Time;durP1;ratioP1;P1;durP2;ratioP2;P2;SDS_P1;SDS_P2;PMS_P1;PMS_P2;Temp;Humidity;BMP_temperature;BMP_pressure;BME280_temperature;BME280_humidity;BME280_pressure;Samples;Min_cycle;Max_cycle;Signal;HPM_P1;HPM_P2
2023/06/03 00:01:18;;;;;;;;;;;19.40;70.00;;;;;;5015308;28;87925;-47
2023/06/03 00:03:45;;;;;;;;;;;19.40;70.00;;;;;;5013035;28;87122;-47
2023/06/03 00:06:12;;;;;;;;;;;19.40;70.10;;;;;;5013584;28;87362;-46
2023/06/03 00:08:38;;;;;;;;;;;19.40;70.70;;;;;;5014987;28;88217;-47
2023/06/03 00:11:04;;;;;;;;;;;19.40;70.10;;;;;;5013550;28;86414;-47
2023/06/03 00:13:29;;;;;;;;;;;19.30;70.10;;;;;;5013349;28;87108;-48
2023/06/03 00:15:55;;;;;;;;;;;19.30;70.10;;;;;;5014299;28;88669;-46
2023/06/03 00:18:20;;;;;;;;;;;19.30;70.10;;;;;;5017490;28;88073;-47
2023/06/03 00:20:47;;;;;;;;;;;19.30;70.70;;;;;;5013250;28;87825;-47
2023/06/03 00:23:16;;;;;;;;;;;19.30;70.10;;;;;;5012860;28;87331;-46
2023/06/03 00:25:41;;;;;;;;;;;19.30;70.10;;;;;;5015389;28;87442;-46
2023/06/03 00:28:07;;;;;;;;;;;19.30;70.10;;;;;;5012887;28;87880;-46
2023/06/03 00:30:33;;;;;;;;;;;19.30;70.10;;;;;;5015181;28;87139;-46
2023/06/03 00:32:58;;;;;;;;;;;19.30;70.20;;;;;;5011953;28;87492;-46
2023/06/03 00:35:24;;;;;;;;;;;19.30;70.20;;;;;;5014811;28;87468;-46
2023/06/03 00:37:49;;;;;;;;;;;19.30;70.20;;;;;;5013843;28;87570;-46
2023/06/03 00:40:15;;;;;;;;;;;19.30;70.20;;;;;;5014876;28;87285;-47
2023/06/03 00:42:41;;;;;;;;;;;19.30;70.20;;;;;;5014329;28;87973;-47
2023/06/03 00:45:06;;;;;;;;;;;19.30;70.20;;;;;;5013219;28;88688;-47
2023/06/03 00:47:32;;;;;;;;;;;19.30;70.20;;;;;;5014135;28;87697;-46
2023/06/03 00:49:57;;;;;;;;;;;19.20;70.20;;;;;;5011812;28;87249;-46
2023/06/03 00:52:24;;;;;;;;;;;19.20;70.20;;;;;;5013797;28;87369;-47
2023/06/03 00:54:51;;;;;;;;;;;19.20;70.20;;;;;;5013385;28;88097;-46
2023/06/03 00:57:19;;;;;;;;;;;19.20;70.30;;;;;;5011838;28;87201;-46
2023/06/03 00:59:45;;;;;;;;;;;19.20;70.30;;;;;;5016646;28;87489;-46
2023/06/03 01:02:12;;;;;;;;;;;19.20;70.20;;;;;;5012566;28;87158;-46
2023/06/03 01:04:38;;;;;;;;;;;19.20;70.30;;;;;;5014481;28;87161;-47
2023/06/03 01:07:06;;;;;;;;;;;19.20;70.20;;;;;;5011091;28;89148;-46
2023/06/03 01:09:32;;;;;;;;;;;19.20;70.30;;;;;;5012166;28;87167;-48
2023/06/03 01:12:02;;;;;;;;;;;19.20;70.20;;;;;;5014450;28;87493;-47
2023/06/03 01:14:39;;;;;;;;;;;19.20;70.80;;;;;;5012326;28;87829;-46
2023/06/03 01:17:09;;;;;;;;;;;19.20;70.30;;;;;;5012634;28;87011;-46
2023/06/03 01:19:47;;;;;;;;;;;19.10;70.20;;;;;;5012292;28;88187;-46
2023/06/03 01:22:13;;;;;;;;;;;19.10;70.20;;;;;;5014985;28;87285;-46
2023/06/03 01:24:40;;;;;;;;;;;19.10;70.30;;;;;;5012761;28;86627;-46
2023/06/03 01:27:06;;;;;;;;;;;19.00;70.30;;;;;;5013764;28;88102;-46
2023/06/03 01:29:31;;;;;;;;;;;19.10;70.30;;;;;;5011836;28;87133;-46
2023/06/03 01:31:57;;;;;;;;;;;19.00;70.40;;;;;;5012106;28;87964;-46
2023/06/03 01:34:23;;;;;;;;;;;19.10;71.00;;;;;;5010751;28;88069;-47
2023/06/03 01:36:49;;;;;;;;;;;19.00;70.30;;;;;;5011255;28;87416;-48
2023/06/03 01:39:15;;;;;;;;;;;19.00;70.30;;;;;;5012912;28;87062;-46
2023/06/03 01:41:42;;;;;;;;;;;19.00;70.30;;;;;;5013308;28;88292;-47
2023/06/03 01:44:08;;;;;;;;;;;19.00;70.30;;;;;;5013917;28;87127;-48
2023/06/03 01:46:34;;;;;;;;;;;19.00;70.30;;;;;;5014207;28;87874;-46
2023/06/03 01:49:00;;;;;;;;;;;19.00;70.40;;;;;;5012016;28;86268;-47
2023/06/03 01:51:26;;;;;;;;;;;19.00;70.40;;;;;;5013771;28;87190;-47
2023/06/03 01:53:51;;;;;;;;;;;19.00;70.30;;;;;;5011354;28;88353;-46
2023/06/03 01:56:17;;;;;;;;;;;19.00;70.40;;;;;;5014261;28;88037;-46
2023/06/03 01:58:42;;;;;;;;;;;19.00;70.40;;;;;;5010589;28;88475;-47
2023/06/03 02:01:08;;;;;;;;;;;19.00;70.40;;;;;;5012296;28;88244;-48
2023/06/03 02:03:33;;;;;;;;;;;19.00;70.40;;;;;;5011313;28;87830;-49
2023/06/03 02:05:59;;;;;;;;;;;18.90;70.40;;;;;;5013928;28;86959;-47
2023/06/03 02:08:24;;;;;;;;;;;18.90;70.30;;;;;;5013515;28;87293;-48
2023/06/03 02:10:50;;;;;;;;;;;18.90;70.30;;;;;;5011898;28;88042;-46
2023/06/03 02:13:15;;;;;;;;;;;18.90;70.30;;;;;;5011455;28;87487;-46
2023/06/03 02:15:41;;;;;;;;;;;18.90;70.30;;;;;;5013600;28;87163;-46
2023/06/03 02:18:07;;;;;;;;;;;18.90;70.30;;;;;;5011813;28;87368;-46
2023/06/03 02:20:32;;;;;;;;;;;18.90;70.30;;;;;;5011010;28;88968;-47
2023/06/03 02:23:01;;;;;;;;;;;18.90;70.40;;;;;;5011100;28;87064;-46
2023/06/03 02:25:27;;;;;;;;;;;18.80;70.40;;;;;;5010478;28;87528;-47
2023/06/03 02:27:54;;;;;;;;;;;18.80;70.40;;;;;;5014601;28;88254;-47
2023/06/03 02:30:20;;;;;;;;;;;18.80;70.30;;;;;;5013177;28;87417;-47
2023/06/03 02:32:46;;;;;;;;;;;18.80;70.40;;;;;;5008757;28;88203;-45
2023/06/03 02:35:11;;;;;;;;;;;18.80;70.40;;;;;;5012149;28;87857;-47
2023/06/03 02:37:37;;;;;;;;;;;18.80;70.30;;;;;;5013475;28;87297;-47
2023/06/03 02:40:02;;;;;;;;;;;18.80;70.40;;;;;;5010092;28;88136;-47
2023/06/03 02:42:28;;;;;;;;;;;18.80;70.30;;;;;;5012652;28;87222;-47
2023/06/03 02:44:53;;;;;;;;;;;18.80;70.40;;;;;;5011157;28;88056;-46
2023/06/03 02:47:19;;;;;;;;;;;18.70;70.30;;;;;;5011600;28;88135;-46
2023/06/03 02:49:45;;;;;;;;;;;18.70;70.40;;;;;;5015369;28;87170;-47
2023/06/03 02:52:11;;;;;;;;;;;18.80;70.30;;;;;;5011031;28;87990;-47
2023/06/03 02:54:36;;;;;;;;;;;18.70;70.30;;;;;;5010730;28;87223;-46
2023/06/03 02:57:02;;;;;;;;;;;18.70;70.30;;;;;;5013028;28;88137;-46
2023/06/03 02:59:27;;;;;;;;;;;18.70;70.30;;;;;;5010486;28;87993;-47
2023/06/03 03:01:53;;;;;;;;;;;18.70;70.30;;;;;;5012983;28;86465;-47
2023/06/03 03:04:20;;;;;;;;;;;18.70;70.30;;;;;;5009665;28;88019;-47
2023/06/03 03:06:49;;;;;;;;;;;18.70;70.20;;;;;;5009852;28;88836;-47
2023/06/03 03:09:14;;;;;;;;;;;18.60;70.30;;;;;;5009862;28;88129;-46
2023/06/03 03:11:40;;;;;;;;;;;18.70;70.40;;;;;;5010134;28;88630;-46
2023/06/03 03:14:06;;;;;;;;;;;18.60;70.30;;;;;;5013273;28;87166;-47
2023/06/03 03:16:33;;;;;;;;;;;18.60;70.30;;;;;;5015149;28;88770;-46
2023/06/03 03:18:58;;;;;;;;;;;18.60;70.30;;;;;;5015353;28;87990;-46
2023/06/03 03:21:24;;;;;;;;;;;18.60;70.30;;;;;;5013525;28;87078;-46
2023/06/03 03:23:50;;;;;;;;;;;18.60;70.30;;;;;;5015405;28;87347;-46
2023/06/03 03:26:21;;;;;;;;;;;18.50;70.40;;;;;;5012289;28;87502;-47
2023/06/03 03:28:46;;;;;;;;;;;18.60;70.30;;;;;;5011944;28;87064;-47
2023/06/03 03:31:14;;;;;;;;;;;18.60;70.40;;;;;;5014722;28;87537;-46
2023/06/03 03:33:40;;;;;;;;;;;18.50;70.30;;;;;;5014325;28;88140;-47
2023/06/03 03:36:11;;;;;;;;;;;18.60;70.30;;;;;;5010038;28;88455;-46
2023/06/03 03:38:39;;;;;;;;;;;18.60;70.30;;;;;;5010941;28;88529;-47
2023/06/03 03:41:05;;;;;;;;;;;18.50;70.30;;;;;;5012610;28;87083;-46
2023/06/03 03:43:31;;;;;;;;;;;18.50;70.40;;;;;;5016912;28;87034;-47
2023/06/03 03:45:57;;;;;;;;;;;18.50;70.30;;;;;;5011382;28;88201;-47
2023/06/03 03:48:25;;;;;;;;;;;18.50;70.40;;;;;;5012209;28;87922;-46
2023/06/03 03:50:51;;;;;;;;;;;18.50;70.30;;;;;;5013920;28;86554;-47
2023/06/03 03:53:17;;;;;;;;;;;18.40;70.40;;;;;;5018865;28;88842;-47
2023/06/03 03:55:44;;;;;;;;;;;18.40;70.40;;;;;;5013115;28;87580;-47
2023/06/03 03:58:26;;;;;;;;;;;18.50;70.30;;;;;;5017680;28;89242;-48
2023/06/03 04:00:53;;;;;;;;;;;18.50;70.50;;;;;;5012812;28;87486;-46
2023/06/03 04:03:19;;;;;;;;;;;18.40;70.50;;;;;;5013426;28;87407;-46
2023/06/03 04:05:46;;;;;;;;;;;18.40;70.30;;;;;;5011553;28;88008;-46
2023/06/03 04:08:15;;;;;;;;;;;18.40;70.30;;;;;;5011336;28;87021;-47
2023/06/03 04:10:41;;;;;;;;;;;18.40;70.40;;;;;;5014208;28;87288;-46
2023/06/03 04:13:06;;;;;;;;;;;18.40;70.50;;;;;;5010572;28;88083;-46
2023/06/03 04:15:33;;;;;;;;;;;18.40;70.40;;;;;;5013446;28;87624;-46
2023/06/03 04:18:00;;;;;;;;;;;18.30;70.50;;;;;;5003422;28;87084;-46
2023/06/03 04:20:42;;;;;;;;;;;18.30;70.50;;;;;;5015006;28;87102;-46
2023/06/03 04:23:14;;;;;;;;;;;18.30;70.50;;;;;;5012151;28;87998;-46
2023/06/03 04:25:41;;;;;;;;;;;18.40;70.40;;;;;;5011119;28;87929;-47
2023/06/03 04:28:06;;;;;;;;;;;18.30;70.40;;;;;;5013859;28;87098;-47
2023/06/03 04:30:32;;;;;;;;;;;18.30;70.50;;;;;;5014895;28;87642;-46
2023/06/03 04:32:57;;;;;;;;;;;18.30;70.60;;;;;;5011652;28;88048;-46
2023/06/03 04:35:23;;;;;;;;;;;18.30;70.40;;;;;;5012917;28;87947;-47
2023/06/03 04:37:50;;;;;;;;;;;18.30;70.50;;;;;;5012793;28;87088;-46
2023/06/03 04:40:15;;;;;;;;;;;18.30;70.50;;;;;;5015103;28;86437;-46
2023/06/03 04:42:41;;;;;;;;;;;18.30;70.50;;;;;;5009626;28;87106;-48
2023/06/03 04:45:07;;;;;;;;;;;18.30;70.50;;;;;;5010774;28;87985;-47
2023/06/03 04:47:33;;;;;;;;;;;18.30;70.40;;;;;;5009961;28;88042;-46
2023/06/03 04:50:00;;;;;;;;;;;18.30;70.30;;;;;;5014458;28;88451;-46
2023/06/03 04:52:27;;;;;;;;;;;18.30;71.00;;;;;;5008294;28;89382;-46
2023/06/03 04:54:52;;;;;;;;;;;18.30;70.50;;;;;;5012040;28;87160;-47
2023/06/03 04:57:18;;;;;;;;;;;18.30;70.40;;;;;;5014655;28;87076;-47
2023/06/03 04:59:43;;;;;;;;;;;18.30;70.50;;;;;;5012324;28;87324;-47
2023/06/03 05:02:10;;;;;;;;;;;18.20;70.50;;;;;;5008131;28;87629;-46
2023/06/03 05:04:37;;;;;;;;;;;18.20;70.40;;;;;;5008443;28;87286;-46
2023/06/03 05:07:02;;;;;;;;;;;18.30;70.50;;;;;;5000909;28;87152;-46
2023/06/03 05:09:28;;;;;;;;;;;18.20;70.50;;;;;;5012362;28;87434;-46
2023/06/03 05:11:55;;;;;;;;;;;18.20;70.50;;;;;;5006228;28;89241;-46
2023/06/03 05:14:22;;;;;;;;;;;18.20;70.40;;;;;;5008198;28;88178;-47
2023/06/03 05:16:48;;;;;;;;;;;18.30;70.50;;;;;;5012246;28;87775;-47
2023/06/03 05:19:13;;;;;;;;;;;18.20;70.40;;;;;;5016073;28;88651;-46
2023/06/03 05:21:39;;;;;;;;;;;18.20;70.50;;;;;;5011916;28;87448;-46
2023/06/03 05:24:04;;;;;;;;;;;18.20;70.40;;;;;;5011895;28;87952;-46
2023/06/03 05:26:30;;;;;;;;;;;18.20;70.40;;;;;;5014216;28;86990;-48
2023/06/03 05:28:56;;;;;;;;;;;18.20;70.30;;;;;;5010757;28;88360;-47
2023/06/03 05:31:22;;;;;;;;;;;18.20;70.40;;;;;;5006967;28;88145;-46
2023/06/03 05:33:47;;;;;;;;;;;18.20;70.30;;;;;;4994249;28;87165;-47
2023/06/03 05:36:13;;;;;;;;;;;18.30;70.40;;;;;;5009453;28;88146;-47
2023/06/03 05:38:38;;;;;;;;;;;18.20;70.30;;;;;;5013330;28;88071;-46
2023/06/03 05:41:04;;;;;;;;;;;18.20;70.40;;;;;;4996282;28;87767;-48
2023/06/03 05:43:30;;;;;;;;;;;18.20;70.50;;;;;;5014294;28;87286;-48
2023/06/03 05:45:55;;;;;;;;;;;18.20;70.40;;;;;;5013843;28;87172;-47
2023/06/03 05:48:21;;;;;;;;;;;18.20;70.40;;;;;;5010664;28;88190;-45
2023/06/03 05:50:50;;;;;;;;;;;18.20;70.40;;;;;;5009844;28;88062;-48
2023/06/03 05:53:34;;;;;;;;;;;18.20;70.50;;;;;;5010240;28;86492;-46
2023/06/03 05:56:00;;;;;;;;;;;18.20;70.50;;;;;;5011285;28;87123;-47
2023/06/03 05:58:25;;;;;;;;;;;18.20;70.50;;;;;;5009413;28;87996;-46
2023/06/03 06:00:52;;;;;;;;;;;18.20;70.50;;;;;;5008462;28;88078;-46
2023/06/03 06:03:18;;;;;;;;;;;18.20;70.60;;;;;;5012634;28;88741;-46
2023/06/03 06:05:44;;;;;;;;;;;18.20;70.50;;;;;;5011533;28;87108;-46
2023/06/03 06:08:10;;;;;;;;;;;18.20;70.60;;;;;;5009161;28;87346;-46
2023/06/03 06:10:35;;;;;;;;;;;18.20;70.50;;;;;;5015476;28;88004;-49
2023/06/03 06:13:01;;;;;;;;;;;18.20;70.60;;;;;;5012417;28;87878;-46
2023/06/03 06:15:28;;;;;;;;;;;18.20;70.60;;;;;;5011545;28;87895;-46
2023/06/03 06:17:53;;;;;;;;;;;18.20;70.70;;;;;;4990914;28;90805;-46
2023/06/03 06:20:19;;;;;;;;;;;18.20;70.60;;;;;;5011200;28;88233;-46
2023/06/03 06:22:47;;;;;;;;;;;18.20;70.60;;;;;;5011452;28;87509;-46
2023/06/03 06:25:12;;;;;;;;;;;18.20;70.70;;;;;;5013518;28;89108;-47
2023/06/03 06:27:38;;;;;;;;;;;18.20;70.60;;;;;;5008533;28;88451;-46
2023/06/03 06:30:04;;;;;;;;;;;18.20;70.60;;;;;;5011488;28;88868;-47
2023/06/03 06:32:30;;;;;;;;;;;18.20;70.80;;;;;;5011212;28;87039;-46
2023/06/03 06:34:55;;;;;;;;;;;18.20;70.80;;;;;;5010792;28;87529;-47
2023/06/03 06:37:21;;;;;;;;;;;18.10;70.80;;;;;;5008575;28;88253;-46
2023/06/03 06:39:48;;;;;;;;;;;18.10;70.70;;;;;;5008245;28;87183;-46
2023/06/03 06:42:13;;;;;;;;;;;18.20;70.80;;;;;;5013528;28;87347;-47
2023/06/03 06:44:46;;;;;;;;;;;18.20;70.80;;;;;;5007959;28;88129;-47
2023/06/03 06:47:12;;;;;;;;;;;18.20;70.80;;;;;;5017566;28;87122;-46
2023/06/03 06:49:37;;;;;;;;;;;18.20;70.80;;;;;;5011765;28;88195;-46
2023/06/03 06:52:03;;;;;;;;;;;18.20;70.80;;;;;;5016032;28;87866;-46
2023/06/03 06:54:29;;;;;;;;;;;18.20;70.80;;;;;;5011624;28;88034;-46
2023/06/03 06:56:54;;;;;;;;;;;18.20;70.90;;;;;;5015857;28;89813;-46
2023/06/03 06:59:20;;;;;;;;;;;18.20;70.90;;;;;;5012708;28;87152;-46
2023/06/03 07:01:45;;;;;;;;;;;18.20;70.80;;;;;;5014985;28;87531;-45
2023/06/03 07:04:11;;;;;;;;;;;18.20;70.90;;;;;;5015888;28;88239;-46
2023/06/03 07:06:36;;;;;;;;;;;18.20;70.90;;;;;;5020832;28;87685;-47
2023/06/03 07:09:02;;;;;;;;;;;18.20;70.90;;;;;;5012243;28;87974;-46
2023/06/03 07:11:28;;;;;;;;;;;18.20;70.90;;;;;;5014964;28;87040;-46
2023/06/03 07:13:53;;;;;;;;;;;18.20;70.90;;;;;;5015064;28;88321;-47
2023/06/03 07:16:19;;;;;;;;;;;18.20;70.90;;;;;;5018074;28;87416;-46
2023/06/03 07:18:44;;;;;;;;;;;18.20;70.90;;;;;;5012535;28;87924;-47
2023/06/03 07:21:15;;;;;;;;;;;18.20;70.80;;;;;;5016277;28;87075;-47
2023/06/03 07:23:45;;;;;;;;;;;18.20;70.90;;;;;;5005905;28;89556;-46
2023/06/03 07:26:10;;;;;;;;;;;18.20;70.90;;;;;;5007705;28;87903;-46
2023/06/03 07:28:37;;;;;;;;;;;18.20;70.90;;;;;;5018736;28;87354;-46
2023/06/03 07:31:06;;;;;;;;;;;18.20;70.90;;;;;;5013444;28;86938;-47
2023/06/03 07:33:36;;;;;;;;;;;18.20;70.90;;;;;;5012276;28;87293;-46
2023/06/03 07:36:02;;;;;;;;;;;18.20;70.90;;;;;;5013160;28;88223;-46
2023/06/03 07:38:34;;;;;;;;;;;18.20;70.90;;;;;;5013676;28;88076;-46
2023/06/03 07:41:00;;;;;;;;;;;18.20;70.90;;;;;;5013606;28;87493;-48
2023/06/03 07:43:27;;;;;;;;;;;18.20;70.90;;;;;;5014308;28;88263;-47
2023/06/03 07:45:53;;;;;;;;;;;18.20;70.90;;;;;;5009296;28;87580;-47
2023/06/03 07:48:18;;;;;;;;;;;18.20;70.90;;;;;;5015625;28;87563;-46
2023/06/03 07:50:45;;;;;;;;;;;18.20;70.90;;;;;;5014386;28;87976;-46
2023/06/03 07:53:13;;;;;;;;;;;18.20;70.90;;;;;;4994938;28;90408;-47
2023/06/03 07:55:45;;;;;;;;;;;18.20;71.00;;;;;;5009450;28;87341;-47
2023/06/03 07:58:11;;;;;;;;;;;18.20;70.90;;;;;;5012727;28;87486;-47
2023/06/03 08:00:42;;;;;;;;;;;18.20;71.00;;;;;;5009204;28;88893;-46
2023/06/03 08:03:07;;;;;;;;;;;18.20;71.00;;;;;;5007793;28;88584;-47
2023/06/03 08:05:35;;;;;;;;;;;18.30;71.10;;;;;;5013139;28;87176;-46
2023/06/03 08:08:04;;;;;;;;;;;18.30;71.00;;;;;;5012648;28;87377;-47
2023/06/03 08:10:32;;;;;;;;;;;18.30;71.10;;;;;;5013876;28;89464;-46
2023/06/03 08:12:58;;;;;;;;;;;18.20;71.10;;;;;;5014557;28;87532;-46
2023/06/03 08:15:27;;;;;;;;;;;18.20;71.10;;;;;;5012046;28;87332;-47
2023/06/03 08:17:53;;;;;;;;;;;18.30;71.10;;;;;;5014100;28;87953;-47
2023/06/03 08:20:28;;;;;;;;;;;18.30;71.20;;;;;;5015174;28;87329;-46
2023/06/03 08:22:54;;;;;;;;;;;18.30;71.10;;;;;;5012967;28;87957;-46
2023/06/03 08:25:20;;;;;;;;;;;18.30;71.10;;;;;;5013278;28;87201;-46
2023/06/03 08:27:46;;;;;;;;;;;18.30;71.10;;;;;;5013696;28;88438;-47
2023/06/03 08:30:15;;;;;;;;;;;18.30;71.10;;;;;;5012353;28;88770;-47
2023/06/03 08:32:41;;;;;;;;;;;18.30;71.10;;;;;;5013176;28;87112;-46
2023/06/03 08:35:07;;;;;;;;;;;18.30;71.20;;;;;;5017278;28;87664;-46
2023/06/03 08:37:33;;;;;;;;;;;18.30;71.20;;;;;;5012705;28;87078;-46
2023/06/03 08:39:59;;;;;;;;;;;18.30;71.10;;;;;;5013286;28;87395;-46
2023/06/03 08:42:28;;;;;;;;;;;18.30;71.10;;;;;;5012404;28;88264;-46
2023/06/03 08:45:00;;;;;;;;;;;18.30;71.10;;;;;;5012972;28;86389;-46
2023/06/03 08:47:46;;;;;;;;;;;18.30;71.20;;;;;;5012273;28;87074;-46
2023/06/03 08:50:14;;;;;;;;;;;18.30;71.00;;;;;;5013727;28;87917;-46
2023/06/03 08:52:42;;;;;;;;;;;18.30;71.30;;;;;;5011622;28;88075;-46
2023/06/03 08:55:09;;;;;;;;;;;18.40;71.00;;;;;;5012899;28;88048;-46
2023/06/03 08:57:38;;;;;;;;;;;18.40;71.10;;;;;;5017802;28;88258;-47
2023/06/03 09:00:05;;;;;;;;;;;18.30;70.90;;;;;;5012682;28;87435;-46
2023/06/03 09:02:32;;;;;;;;;;;18.40;71.10;;;;;;4993552;28;90927;-46
2023/06/03 09:05:01;;;;;;;;;;;18.40;71.10;;;;;;5014609;28;86955;-47
2023/06/03 09:07:27;;;;;;;;;;;18.40;71.10;;;;;;5012698;28;86924;-47
2023/06/03 09:09:54;;;;;;;;;;;18.40;71.00;;;;;;5012165;28;87298;-46
2023/06/03 09:12:20;;;;;;;;;;;18.50;71.10;;;;;;5014484;28;87161;-48
2023/06/03 09:14:46;;;;;;;;;;;18.50;71.10;;;;;;5013344;28;87324;-46
2023/06/03 09:17:11;;;;;;;;;;;18.50;71.00;;;;;;5015632;28;89256;-45
2023/06/03 09:19:37;;;;;;;;;;;18.50;70.90;;;;;;5011355;28;88325;-46
2023/06/03 09:22:03;;;;;;;;;;;18.50;71.00;;;;;;5013356;28;88311;-46
2023/06/03 09:24:28;;;;;;;;;;;18.50;71.00;;;;;;5012784;28;87165;-46
2023/06/03 09:26:54;;;;;;;;;;;18.50;71.00;;;;;;4996043;28;89890;-46
2023/06/03 09:29:20;;;;;;;;;;;18.50;71.10;;;;;;5011168;28;88008;-47
2023/06/03 09:31:47;;;;;;;;;;;18.50;71.10;;;;;;5013112;28;87192;-49
2023/06/03 09:34:13;;;;;;;;;;;18.50;71.00;;;;;;5014048;28;87386;-46
2023/06/03 09:36:45;;;;;;;;;;;18.50;71.00;;;;;;5010611;28;87969;-46
2023/06/03 09:39:16;;;;;;;;;;;18.50;71.00;;;;;;5014772;28;87085;-46
2023/06/03 09:41:42;;;;;;;;;;;18.60;71.10;;;;;;5013315;28;89042;-46
2023/06/03 09:44:10;;;;;;;;;;;18.60;71.20;;;;;;5012039;28;87126;-46
2023/06/03 09:46:36;;;;;;;;;;;18.50;71.10;;;;;;5013605;28;87611;-46
2023/06/03 09:49:14;;;;;;;;;;;18.60;71.20;;;;;;5010698;28;88022;-45
2023/06/03 09:51:46;;;;;;;;;;;18.60;71.40;;;;;;5010708;28;87107;-46
2023/06/03 09:54:12;;;;;;;;;;;18.60;71.10;;;;;;5011830;28;87330;-47
2023/06/03 09:56:38;;;;;;;;;;;18.60;71.20;;;;;;5011482;28;88011;-46
2023/06/03 09:59:17;;;;;;;;;;;18.60;71.10;;;;;;5013371;28;86270;-46
2023/06/03 10:01:45;;;;;;;;;;;18.60;71.10;;;;;;4997559;28;89701;-46
2023/06/03 10:04:11;;;;;;;;;;;18.60;71.30;;;;;;4992232;28;87096;-46
2023/06/03 10:06:38;;;;;;;;;;;18.60;71.10;;;;;;5011906;28;87968;-46
2023/06/03 10:09:19;;;;;;;;;;;18.60;71.30;;;;;;5012744;28;87272;-46
2023/06/03 10:11:46;;;;;;;;;;;18.60;71.30;;;;;;5012460;28;87023;-47
2023/06/03 10:14:11;;;;;;;;;;;18.60;71.30;;;;;;5011179;28;87493;-46
2023/06/03 10:16:37;;;;;;;;;;;18.60;71.20;;;;;;5010586;28;88129;-47
2023/06/03 10:19:03;;;;;;;;;;;18.70;71.30;;;;;;5011866;28;87132;-47
2023/06/03 10:21:29;;;;;;;;;;;18.60;71.50;;;;;;5012654;28;87606;-46
2023/06/03 10:23:57;;;;;;;;;;;18.60;71.60;;;;;;5013615;28;88313;-46
2023/06/03 10:26:23;;;;;;;;;;;18.60;71.70;;;;;;5011816;28;87595;-47
2023/06/03 10:28:49;;;;;;;;;;;18.70;71.80;;;;;;5013434;28;87173;-46
2023/06/03 10:31:15;;;;;;;;;;;18.70;71.80;;;;;;5009651;28;88364;-46
2023/06/03 10:33:41;;;;;;;;;;;18.70;71.90;;;;;;5012049;28;87534;-46
2023/06/03 10:36:07;;;;;;;;;;;18.60;72.00;;;;;;5012128;28;87866;-47
2023/06/03 10:38:32;;;;;;;;;;;18.60;71.80;;;;;;5010318;28;87248;-47
2023/06/03 10:41:01;;;;;;;;;;;18.60;71.90;;;;;;5012487;28;89020;-47
2023/06/03 10:43:27;;;;;;;;;;;18.60;71.90;;;;;;5013199;28;87953;-47
2023/06/03 10:45:53;;;;;;;;;;;18.70;71.90;;;;;;5013214;28;87357;-46
2023/06/03 10:48:21;;;;;;;;;;;18.70;71.80;;;;;;5012645;28;87171;-46
2023/06/03 10:50:47;;;;;;;;;;;18.70;71.90;;;;;;5012365;28;87028;-46
2023/06/03 10:53:30;;;;;;;;;;;18.70;71.80;;;;;;5010365;28;87405;-46
2023/06/03 10:56:01;;;;;;;;;;;18.80;71.80;;;;;;5009074;28;89686;-46
2023/06/03 10:58:30;;;;;;;;;;;18.80;71.80;;;;;;5010966;28;87193;-46
2023/06/03 11:01:00;;;;;;;;;;;18.80;71.80;;;;;;5012627;28;87146;-46
2023/06/03 11:03:26;;;;;;;;;;;18.80;71.80;;;;;;5009895;28;87272;-45
2023/06/03 11:05:52;;;;;;;;;;;18.80;71.90;;;;;;5011324;28;87088;-46
2023/06/03 11:08:36;;;;;;;;;;;18.90;71.90;;;;;;5015391;28;87439;-47
2023/06/03 11:11:02;;;;;;;;;;;18.90;72.60;;;;;;5012721;28;87251;-46
2023/06/03 11:13:41;;;;;;;;;;;18.90;71.90;;;;;;5010850;28;87629;-47
2023/06/03 11:16:06;;;;;;;;;;;18.80;72.00;;;;;;5012332;28;87827;-46
2023/06/03 11:18:32;;;;;;;;;;;18.90;72.20;;;;;;5009992;28;87192;-46
2023/06/03 11:20:58;;;;;;;;;;;18.90;72.20;;;;;;5010777;28;87987;-46
2023/06/03 11:23:45;;;;;;;;;;;18.90;72.10;;;;;;5011898;28;88020;-47
2023/06/03 11:26:29;;;;;;;;;;;18.90;72.20;;;;;;5012336;28;87142;-46
2023/06/03 11:28:54;;;;;;;;;;;18.90;72.00;;;;;;5013115;28;87473;-47
2023/06/03 11:31:20;;;;;;;;;;;19.00;72.10;;;;;;5012530;28;87111;-46
2023/06/03 11:34:04;;;;;;;;;;;18.90;72.00;;;;;;5011664;28;87409;-46
2023/06/03 11:36:58;;;;;;;;;;;19.00;71.80;;;;;;5013558;28;88154;-46
2023/06/03 11:39:24;;;;;;;;;;;19.00;71.90;;;;;;4999072;28;86944;-46
2023/06/03 11:42:02;;;;;;;;;;;19.00;72.00;;;;;;5012638;28;87043;-46
2023/06/03 11:44:29;;;;;;;;;;;18.90;72.10;;;;;;5014532;28;87916;-46
2023/06/03 11:46:54;;;;;;;;;;;19.00;72.00;;;;;;5015005;28;88109;-46
2023/06/03 11:49:21;;;;;;;;;;;19.00;72.00;;;;;;5013663;28;88513;-46
2023/06/03 11:51:49;;;;;;;;;;;19.00;72.00;;;;;;5016078;28;87327;-47
2023/06/03 11:54:17;;;;;;;;;;;19.00;72.00;;;;;;5015536;28;87065;-46
2023/06/03 11:56:45;;;;;;;;;;;19.00;72.00;;;;;;5013347;28;87760;-46
2023/06/03 11:59:12;;;;;;;;;;;19.00;71.90;;;;;;5015727;28;87134;-46
2023/06/03 12:01:52;;;;;;;;;;;19.00;72.10;;;;;;5012731;28;87089;-46
2023/06/03 12:04:19;;;;;;;;;;;19.00;72.10;;;;;;5012906;28;87551;-46
2023/06/03 12:06:45;;;;;;;;;;;19.00;72.10;;;;;;5014631;28;87175;-46
2023/06/03 12:09:15;;;;;;;;;;;19.00;72.00;;;;;;5013740;28;87489;-46
2023/06/03 12:11:42;;;;;;;;;;;19.00;72.10;;;;;;5011066;28;89069;-47
2023/06/03 12:14:09;;;;;;;;;;;19.00;72.20;;;;;;5018162;28;87109;-46
2023/06/03 12:16:36;;;;;;;;;;;19.00;72.20;;;;;;5012846;28;87882;-46
2023/06/03 12:19:03;;;;;;;;;;;19.00;72.20;;;;;;5014915;28;87179;-47
2023/06/03 12:21:29;;;;;;;;;;;19.00;72.20;;;;;;5013593;28;87998;-46
2023/06/03 12:23:56;;;;;;;;;;;19.10;72.30;;;;;;5012626;28;87296;-47
2023/06/03 12:26:23;;;;;;;;;;;19.10;72.30;;;;;;5014901;28;87173;-46
2023/06/03 12:28:49;;;;;;;;;;;19.10;72.30;;;;;;5013598;28;86526;-46
2023/06/03 12:31:15;;;;;;;;;;;19.10;72.30;;;;;;5014625;28;89112;-46
2023/06/03 12:33:41;;;;;;;;;;;19.10;72.30;;;;;;5012346;28;87205;-46
2023/06/03 12:36:08;;;;;;;;;;;19.10;72.20;;;;;;5016106;28;87999;-46
2023/06/03 12:38:34;;;;;;;;;;;19.10;72.30;;;;;;5014013;28;87095;-46
2023/06/03 12:41:08;;;;;;;;;;;19.10;72.40;;;;;;5011967;28;86952;-47
2023/06/03 12:43:34;;;;;;;;;;;19.10;73.00;;;;;;5012897;28;88175;-47
2023/06/03 12:46:16;;;;;;;;;;;19.10;72.40;;;;;;5013114;28;86877;-46
2023/06/03 12:48:42;;;;;;;;;;;19.10;72.40;;;;;;5014298;28;87466;-46
2023/06/03 12:51:20;;;;;;;;;;;19.10;72.40;;;;;;5011710;28;88247;-48
2023/06/03 12:53:46;;;;;;;;;;;19.10;72.30;;;;;;5012753;28;86177;-47
2023/06/03 12:56:13;;;;;;;;;;;19.10;72.30;;;;;;5014773;28;87064;-46
2023/06/03 12:58:39;;;;;;;;;;;19.10;72.10;;;;;;5015210;28;88005;-46
2023/06/03 13:01:04;;;;;;;;;;;19.20;72.00;;;;;;4993041;28;90114;-46
2023/06/03 13:03:31;;;;;;;;;;;19.10;72.10;;;;;;5014203;28;87792;-45
2023/06/03 13:05:57;;;;;;;;;;;19.20;72.20;;;;;;5012614;28;87102;-46
2023/06/03 13:08:22;;;;;;;;;;;19.20;72.10;;;;;;5012697;28;87537;-47
2023/06/03 13:10:48;;;;;;;;;;;19.20;72.00;;;;;;5014122;28;87731;-45
2023/06/03 13:13:13;;;;;;;;;;;19.10;72.10;;;;;;5011672;28;87183;-47
2023/06/03 13:15:39;;;;;;;;;;;19.10;72.00;;;;;;5014248;28;87259;-46
2023/06/03 13:18:05;;;;;;;;;;;19.10;72.10;;;;;;5013981;28;87366;-46
2023/06/03 13:20:30;;;;;;;;;;;19.20;72.20;;;;;;5014437;28;86975;-45
2023/06/03 13:22:56;;;;;;;;;;;19.20;72.20;;;;;;5012810;28;88336;-48
2023/06/03 13:25:21;;;;;;;;;;;19.10;72.10;;;;;;5012789;28;88057;-46
2023/06/03 13:27:47;;;;;;;;;;;19.10;72.00;;;;;;5011347;28;87983;-48
2023/06/03 13:30:14;;;;;;;;;;;19.10;72.10;;;;;;4995731;28;91035;-46
2023/06/03 13:32:40;;;;;;;;;;;19.10;72.10;;;;;;5012558;28;87097;-46
2023/06/03 13:35:06;;;;;;;;;;;19.10;72.10;;;;;;5013655;28;87442;-46
2023/06/03 13:37:31;;;;;;;;;;;19.10;72.10;;;;;;5010997;28;87339;-47
2023/06/03 13:39:57;;;;;;;;;;;19.10;72.10;;;;;;5015751;28;87508;-46
2023/06/03 13:42:23;;;;;;;;;;;19.10;72.20;;;;;;5013577;28;87304;-47
2023/06/03 13:44:49;;;;;;;;;;;19.10;72.20;;;;;;5010929;28;87091;-46
2023/06/03 13:47:14;;;;;;;;;;;19.10;72.30;;;;;;5014163;28;88015;-46
2023/06/03 13:49:40;;;;;;;;;;;19.10;72.30;;;;;;5011655;28;88675;-48
2023/06/03 13:52:05;;;;;;;;;;;19.10;72.40;;;;;;5010896;28;87093;-46
2023/06/03 13:54:31;;;;;;;;;;;19.10;72.30;;;;;;5013467;28;87380;-47
2023/06/03 13:56:57;;;;;;;;;;;19.10;72.40;;;;;;5010974;28;87995;-46
2023/06/03 13:59:23;;;;;;;;;;;19.10;72.40;;;;;;5011169;28;87137;-46
2023/06/03 14:01:50;;;;;;;;;;;19.10;72.40;;;;;;5015243;28;88225;-47
2023/06/03 14:04:15;;;;;;;;;;;19.10;72.40;;;;;;5011965;28;87096;-47
2023/06/03 14:06:41;;;;;;;;;;;19.10;72.30;;;;;;5011546;28;86988;-47
2023/06/03 14:09:07;;;;;;;;;;;19.10;72.30;;;;;;5013186;28;88211;-47
2023/06/03 14:11:32;;;;;;;;;;;19.10;72.30;;;;;;5011441;28;87082;-47
2023/06/03 14:13:58;;;;;;;;;;;19.10;72.30;;;;;;5010559;28;87954;-46
2023/06/03 14:16:26;;;;;;;;;;;19.10;72.90;;;;;;5011619;28;88230;-47